sensor_id;sensor_type;location;lat;lon;timestamp;P1;durP1;ratioP1;P2;durP2;ratioP2
10902;SDS011;5504;47.312;11.060;2023-05-20T00:01:12;7.43;;;6.73;;
10902;SDS011;5504;47.312;11.060;2023-05-20T00:03:37;7.47;;;6.77;;
10902;SDS011;5504;47.312;11.060;2023-05-20T00:06:03;7.47;;;6.67;;
10902;SDS011;5504;47.312;11.060;2023-05-20T00:08:29;7.07;;;6.47;;
10902;SDS011;5504;47.312;11.060;2023-05-20T00:10:55;7.33;;;6.63;;
10902;SDS011;5504;47.312;11.060;2023-05-20T00:13:20;8.47;;;7.07;;
10902;SDS011;5504;47.312;11.060;2023-05-20T00:15:48;8.30;;;6.83;;
10902;SDS011;5504;47.312;11.060;2023-05-20T00:18:13;8.43;;;6.60;;
10902;SDS011;5504;47.312;11.060;2023-05-20T00:20:39;6.37;;;5.77;;
10902;SDS011;5504;47.312;11.060;2023-05-20T00:23:05;7.97;;;6.53;;
10902;SDS011;5504;47.312;11.060;2023-05-20T00:25:30;7.77;;;7.03;;
10902;SDS011;5504;47.312;11.060;2023-05-20T00:27:56;7.50;;;6.80;;
10902;SDS011;5504;47.312;11.060;2023-05-20T00:30:22;7.37;;;6.67;;
10902;SDS011;5504;47.312;11.060;2023-05-20T00:32:48;7.60;;;6.80;;
10902;SDS011;5504;47.312;11.060;2023-05-20T00:35:13;7.83;;;6.90;;
10902;SDS011;5504;47.312;11.060;2023-05-20T00:37:39;7.93;;;7.13;;
10902;SDS011;5504;47.312;11.060;2023-05-20T00:40:05;8.20;;;7.30;;
10902;SDS011;5504;47.312;11.060;2023-05-20T00:42:31;7.90;;;7.10;;
10902;SDS011;5504;47.312;11.060;2023-05-20T00:44:57;7.23;;;6.53;;
10902;SDS011;5504;47.312;11.060;2023-05-20T00:47:28;7.20;;;6.50;;
10902;SDS011;5504;47.312;11.060;2023-05-20T00:49:56;7.30;;;6.60;;
10902;SDS011;5504;47.312;11.060;2023-05-20T00:52:23;7.60;;;6.73;;
10902;SDS011;5504;47.312;11.060;2023-05-20T00:54:49;7.50;;;6.70;;
10902;SDS011;5504;47.312;11.060;2023-05-20T00:57:16;8.57;;;7.00;;
10902;SDS011;5504;47.312;11.060;2023-05-20T00:59:43;7.73;;;6.97;;
10902;SDS011;5504;47.312;11.060;2023-05-20T01:02:09;7.93;;;7.13;;
10902;SDS011;5504;47.312;11.060;2023-05-20T01:04:35;7.93;;;7.13;;
10902;SDS011;5504;47.312;11.060;2023-05-20T01:07:02;8.13;;;7.43;;
10902;SDS011;5504;47.312;11.060;2023-05-20T01:09:30;7.60;;;6.83;;
10902;SDS011;5504;47.312;11.060;2023-05-20T01:12:09;8.30;;;7.47;;
10902;SDS011;5504;47.312;11.060;2023-05-20T01:14:42;8.17;;;6.77;;
10902;SDS011;5504;47.312;11.060;2023-05-20T01:17:13;7.53;;;6.50;;
10902;SDS011;5504;47.312;11.060;2023-05-20T01:19:42;8.13;;;6.80;;
10902;SDS011;5504;47.312;11.060;2023-05-20T01:22:12;7.50;;;6.80;;
10902;SDS011;5504;47.312;11.060;2023-05-20T01:24:43;8.37;;;7.10;;
10902;SDS011;5504;47.312;11.060;2023-05-20T01:27:12;7.83;;;7.10;;
10902;SDS011;5504;47.312;11.060;2023-05-20T01:29:39;8.80;;;7.83;;
10902;SDS011;5504;47.312;11.060;2023-05-20T01:32:10;7.90;;;7.03;;
10902;SDS011;5504;47.312;11.060;2023-05-20T01:34:41;7.33;;;6.63;;
10902;SDS011;5504;47.312;11.060;2023-05-20T01:37:09;7.93;;;7.13;;
10902;SDS011;5504;47.312;11.060;2023-05-20T01:39:37;8.33;;;7.43;;
10902;SDS011;5504;47.312;11.060;2023-05-20T01:42:06;8.50;;;7.60;;
10902;SDS011;5504;47.312;11.060;2023-05-20T01:44:33;7.70;;;6.87;;
10902;SDS011;5504;47.312;11.060;2023-05-20T01:46:59;7.00;;;6.30;;
10902;SDS011;5504;47.312;11.060;2023-05-20T01:49:28;7.77;;;6.60;;
10902;SDS011;5504;47.312;11.060;2023-05-20T01:51:54;7.23;;;6.53;;
10902;SDS011;5504;47.312;11.060;2023-05-20T01:54:20;7.80;;;7.00;;
10902;SDS011;5504;47.312;11.060;2023-05-20T01:56:46;9.03;;;7.67;;
10902;SDS011;5504;47.312;11.060;2023-05-20T01:59:11;8.30;;;7.50;;
10902;SDS011;5504;47.312;11.060;2023-05-20T02:01:37;8.40;;;7.60;;
10902;SDS011;5504;47.312;11.060;2023-05-20T02:04:03;7.90;;;7.03;;
10902;SDS011;5504;47.312;11.060;2023-05-20T02:06:29;7.80;;;7.07;;
10902;SDS011;5504;47.312;11.060;2023-05-20T02:08:55;8.33;;;7.40;;
10902;SDS011;5504;47.312;11.060;2023-05-20T02:11:21;7.80;;;7.10;;
10902;SDS011;5504;47.312;11.060;2023-05-20T02:13:46;7.43;;;6.73;;
10902;SDS011;5504;47.312;11.060;2023-05-20T02:16:13;7.43;;;6.73;;
10902;SDS011;5504;47.312;11.060;2023-05-20T02:18:39;8.50;;;6.83;;
10902;SDS011;5504;47.312;11.060;2023-05-20T02:21:06;8.17;;;7.00;;
10902;SDS011;5504;47.312;11.060;2023-05-20T02:23:32;7.63;;;6.70;;
10902;SDS011;5504;47.312;11.060;2023-05-20T02:25:58;7.37;;;6.67;;
10902;SDS011;5504;47.312;11.060;2023-05-20T02:28:25;7.20;;;6.50;;
10902;SDS011;5504;47.312;11.060;2023-05-20T02:30:51;7.10;;;6.40;;
10902;SDS011;5504;47.312;11.060;2023-05-20T02:33:20;7.93;;;6.80;;
10902;SDS011;5504;47.312;11.060;2023-05-20T02:35:45;7.13;;;6.43;;
10902;SDS011;5504;47.312;11.060;2023-05-20T02:38:11;6.73;;;6.10;;
10902;SDS011;5504;47.312;11.060;2023-05-20T02:40:37;7.70;;;7.00;;
10902;SDS011;5504;47.312;11.060;2023-05-20T02:43:03;7.57;;;6.87;;
10902;SDS011;5504;47.312;11.060;2023-05-20T02:45:29;9.50;;;6.90;;
10902;SDS011;5504;47.312;11.060;2023-05-20T02:47:55;7.77;;;6.97;;
10902;SDS011;5504;47.312;11.060;2023-05-20T02:50:21;7.63;;;6.70;;
10902;SDS011;5504;47.312;11.060;2023-05-20T02:52:46;7.77;;;6.70;;
10902;SDS011;5504;47.312;11.060;2023-05-20T02:55:12;8.47;;;6.87;;
10902;SDS011;5504;47.312;11.060;2023-05-20T02:57:38;8.33;;;6.93;;
10902;SDS011;5504;47.312;11.060;2023-05-20T03:00:04;7.57;;;6.77;;
10902;SDS011;5504;47.312;11.060;2023-05-20T03:02:37;8.67;;;6.97;;
10902;SDS011;5504;47.312;11.060;2023-05-20T03:05:03;8.30;;;6.93;;
10902;SDS011;5504;47.312;11.060;2023-05-20T03:07:29;7.27;;;6.57;;
10902;SDS011;5504;47.312;11.060;2023-05-20T03:09:55;7.30;;;6.60;;
10902;SDS011;5504;47.312;11.060;2023-05-20T03:12:23;7.93;;;7.03;;
10902;SDS011;5504;47.312;11.060;2023-05-20T03:14:50;8.20;;;7.40;;
10902;SDS011;5504;47.312;11.060;2023-05-20T03:17:19;8.90;;;7.80;;
10902;SDS011;5504;47.312;11.060;2023-05-20T03:19:45;7.93;;;7.10;;
10902;SDS011;5504;47.312;11.060;2023-05-20T03:22:11;8.47;;;7.07;;
10902;SDS011;5504;47.312;11.060;2023-05-20T03:24:37;7.63;;;6.80;;
10902;SDS011;5504;47.312;11.060;2023-05-20T03:27:03;7.70;;;6.93;;
10902;SDS011;5504;47.312;11.060;2023-05-20T03:29:28;8.83;;;7.57;;
10902;SDS011;5504;47.312;11.060;2023-05-20T03:31:55;8.67;;;7.77;;
10902;SDS011;5504;47.312;11.060;2023-05-20T03:34:21;8.27;;;7.33;;
10902;SDS011;5504;47.312;11.060;2023-05-20T03:36:46;8.80;;;7.90;;
10902;SDS011;5504;47.312;11.060;2023-05-20T03:39:12;8.90;;;7.77;;
10902;SDS011;5504;47.312;11.060;2023-05-20T03:41:38;8.00;;;7.20;;
10902;SDS011;5504;47.312;11.060;2023-05-20T03:44:03;7.90;;;7.17;;
10902;SDS011;5504;47.312;11.060;2023-05-20T03:46:29;8.27;;;7.13;;
10902;SDS011;5504;47.312;11.060;2023-05-20T03:48:56;8.13;;;7.33;;
10902;SDS011;5504;47.312;11.060;2023-05-20T03:51:22;8.10;;;7.30;;
10902;SDS011;5504;47.312;11.060;2023-05-20T03:53:47;9.17;;;7.43;;
10902;SDS011;5504;47.312;11.060;2023-05-20T03:56:13;8.33;;;7.47;;
10902;SDS011;5504;47.312;11.060;2023-05-20T03:58:39;8.03;;;7.20;;
10902;SDS011;5504;47.312;11.060;2023-05-20T04:01:04;7.93;;;7.13;;
10902;SDS011;5504;47.312;11.060;2023-05-20T04:03:30;7.90;;;6.83;;
10902;SDS011;5504;47.312;11.060;2023-05-20T04:05:56;8.80;;;7.90;;
10902;SDS011;5504;47.312;11.060;2023-05-20T04:08:22;8.80;;;8.00;;
10902;SDS011;5504;47.312;11.060;2023-05-20T04:10:49;9.53;;;8.43;;
10902;SDS011;5504;47.312;11.060;2023-05-20T04:13:19;11.57;;;7.93;;
10902;SDS011;5504;47.312;11.060;2023-05-20T04:15:46;7.93;;;7.13;;
10902;SDS011;5504;47.312;11.060;2023-05-20T04:18:11;8.30;;;7.50;;
10902;SDS011;5504;47.312;11.060;2023-05-20T04:20:37;8.53;;;7.63;;
10902;SDS011;5504;47.312;11.060;2023-05-20T04:23:05;8.20;;;7.40;;
10902;SDS011;5504;47.312;11.060;2023-05-20T04:25:31;7.77;;;7.03;;
10902;SDS011;5504;47.312;11.060;2023-05-20T04:27:58;7.97;;;7.17;;
10902;SDS011;5504;47.312;11.060;2023-05-20T04:30:24;7.80;;;7.00;;
10902;SDS011;5504;47.312;11.060;2023-05-20T04:32:50;7.37;;;6.67;;
10902;SDS011;5504;47.312;11.060;2023-05-20T04:35:16;7.37;;;6.53;;
10902;SDS011;5504;47.312;11.060;2023-05-20T04:37:42;7.67;;;6.87;;
10902;SDS011;5504;47.312;11.060;2023-05-20T04:40:17;7.40;;;6.70;;
10902;SDS011;5504;47.312;11.060;2023-05-20T04:42:43;7.63;;;6.83;;
10902;SDS011;5504;47.312;11.060;2023-05-20T04:45:08;7.40;;;6.70;;
10902;SDS011;5504;47.312;11.060;2023-05-20T04:47:35;9.13;;;7.47;;
10902;SDS011;5504;47.312;11.060;2023-05-20T04:50:04;7.93;;;7.20;;
10902;SDS011;5504;47.312;11.060;2023-05-20T04:52:32;9.93;;;8.93;;
10902;SDS011;5504;47.312;11.060;2023-05-20T04:54:58;9.80;;;8.80;;
10902;SDS011;5504;47.312;11.060;2023-05-20T04:57:25;9.00;;;8.10;;
10902;SDS011;5504;47.312;11.060;2023-05-20T04:59:51;9.13;;;8.23;;
10902;SDS011;5504;47.312;11.060;2023-05-20T05:02:17;8.83;;;7.93;;
10902;SDS011;5504;47.312;11.060;2023-05-20T05:04:42;9.40;;;8.40;;
10902;SDS011;5504;47.312;11.060;2023-05-20T05:07:08;8.73;;;7.93;;
10902;SDS011;5504;47.312;11.060;2023-05-20T05:09:34;9.60;;;7.83;;
10902;SDS011;5504;47.312;11.060;2023-05-20T05:12:00;8.90;;;8.00;;
10902;SDS011;5504;47.312;11.060;2023-05-20T05:14:26;9.07;;;8.07;;
10902;SDS011;5504;47.312;11.060;2023-05-20T05:16:52;9.03;;;8.00;;
10902;SDS011;5504;47.312;11.060;2023-05-20T05:19:18;8.73;;;7.93;;
10902;SDS011;5504;47.312;11.060;2023-05-20T05:21:43;8.63;;;7.83;;
10902;SDS011;5504;47.312;11.060;2023-05-20T05:24:09;10.07;;;8.87;;
10902;SDS011;5504;47.312;11.060;2023-05-20T05:26:35;9.90;;;8.90;;
10902;SDS011;5504;47.312;11.060;2023-05-20T05:29:00;8.90;;;8.03;;
10902;SDS011;5504;47.312;11.060;2023-05-20T05:31:26;9.33;;;8.40;;
10902;SDS011;5504;47.312;11.060;2023-05-20T05:33:52;11.63;;;8.57;;
10902;SDS011;5504;47.312;11.060;2023-05-20T05:36:17;9.40;;;8.40;;
10902;SDS011;5504;47.312;11.060;2023-05-20T05:38:43;10.90;;;8.47;;
10902;SDS011;5504;47.312;11.060;2023-05-20T05:41:09;10.07;;;8.20;;
10902;SDS011;5504;47.312;11.060;2023-05-20T05:43:35;11.60;;;9.10;;
10902;SDS011;5504;47.312;11.060;2023-05-20T05:46:00;12.33;;;9.33;;
10902;SDS011;5504;47.312;11.060;2023-05-20T05:48:26;10.23;;;9.07;;
10902;SDS011;5504;47.312;11.060;2023-05-20T05:50:52;9.13;;;8.17;;
10902;SDS011;5504;47.312;11.060;2023-05-20T05:53:17;10.07;;;8.23;;
10902;SDS011;5504;47.312;11.060;2023-05-20T05:55:47;11.97;;;9.20;;
10902;SDS011;5504;47.312;11.060;2023-05-20T05:58:12;11.63;;;8.40;;
10902;SDS011;5504;47.312;11.060;2023-05-20T06:00:38;8.57;;;7.60;;
10902;SDS011;5504;47.312;11.060;2023-05-20T06:03:04;8.07;;;7.13;;
10902;SDS011;5504;47.312;11.060;2023-05-20T06:05:30;7.90;;;7.10;;
10902;SDS011;5504;47.312;11.060;2023-05-20T06:07:56;8.33;;;7.53;;
10902;SDS011;5504;47.312;11.060;2023-05-20T06:10:22;8.13;;;7.17;;
10902;SDS011;5504;47.312;11.060;2023-05-20T06:12:47;7.17;;;6.30;;
10902;SDS011;5504;47.312;11.060;2023-05-20T06:15:13;7.23;;;6.60;;
10902;SDS011;5504;47.312;11.060;2023-05-20T06:17:39;6.87;;;5.90;;
10902;SDS011;5504;47.312;11.060;2023-05-20T06:20:05;7.03;;;6.43;;
10902;SDS011;5504;47.312;11.060;2023-05-20T06:22:31;7.07;;;6.13;;
10902;SDS011;5504;47.312;11.060;2023-05-20T06:24:57;6.23;;;5.63;;
10902;SDS011;5504;47.312;11.060;2023-05-20T06:27:24;6.63;;;5.93;;
10902;SDS011;5504;47.312;11.060;2023-05-20T06:29:51;6.63;;;5.90;;
10902;SDS011;5504;47.312;11.060;2023-05-20T06:32:17;6.87;;;5.73;;
10902;SDS011;5504;47.312;11.060;2023-05-20T06:34:43;7.43;;;6.30;;
10902;SDS011;5504;47.312;11.060;2023-05-20T06:37:09;6.60;;;5.80;;
10902;SDS011;5504;47.312;11.060;2023-05-20T06:39:35;6.07;;;5.47;;
10902;SDS011;5504;47.312;11.060;2023-05-20T06:42:02;6.40;;;5.80;;
10902;SDS011;5504;47.312;11.060;2023-05-20T06:44:28;6.40;;;5.80;;
10902;SDS011;5504;47.312;11.060;2023-05-20T06:46:54;5.53;;;5.03;;
10902;SDS011;5504;47.312;11.060;2023-05-20T06:49:20;6.30;;;5.60;;
10902;SDS011;5504;47.312;11.060;2023-05-20T06:51:46;6.67;;;5.70;;
10902;SDS011;5504;47.312;11.060;2023-05-20T06:54:12;6.33;;;5.73;;
10902;SDS011;5504;47.312;11.060;2023-05-20T06:56:38;5.73;;;5.13;;
10902;SDS011;5504;47.312;11.060;2023-05-20T06:59:04;5.30;;;4.80;;
10902;SDS011;5504;47.312;11.060;2023-05-20T07:01:29;5.37;;;4.87;;
10902;SDS011;5504;47.312;11.060;2023-05-20T07:03:55;5.70;;;5.10;;
10902;SDS011;5504;47.312;11.060;2023-05-20T07:06:21;5.47;;;4.97;;
10902;SDS011;5504;47.312;11.060;2023-05-20T07:08:47;5.63;;;5.13;;
10902;SDS011;5504;47.312;11.060;2023-05-20T07:11:13;5.60;;;4.70;;
10902;SDS011;5504;47.312;11.060;2023-05-20T07:13:38;6.03;;;4.90;;
10902;SDS011;5504;47.312;11.060;2023-05-20T07:16:04;5.10;;;4.30;;
10902;SDS011;5504;47.312;11.060;2023-05-20T07:18:30;5.57;;;4.68;;
10902;SDS011;5504;47.312;11.060;2023-05-20T07:20:56;5.53;;;5.00;;
10902;SDS011;5504;47.312;11.060;2023-05-20T07:23:22;6.38;;;5.30;;
10902;SDS011;5504;47.312;11.060;2023-05-20T07:25:48;6.43;;;5.32;;
10902;SDS011;5504;47.312;11.060;2023-05-20T07:28:16;6.05;;;4.97;;
10902;SDS011;5504;47.312;11.060;2023-05-20T07:30:42;4.90;;;4.45;;
10902;SDS011;5504;47.312;11.060;2023-05-20T07:33:14;5.30;;;4.40;;
10902;SDS011;5504;47.312;11.060;2023-05-20T07:35:41;4.57;;;4.15;;
10902;SDS011;5504;47.312;11.060;2023-05-20T07:38:07;4.95;;;4.32;;
10902;SDS011;5504;47.312;11.060;2023-05-20T07:40:32;5.30;;;4.35;;
10902;SDS011;5504;47.312;11.060;2023-05-20T07:43:00;6.55;;;4.80;;
10902;SDS011;5504;47.312;11.060;2023-05-20T07:45:26;4.28;;;3.88;;
10902;SDS011;5504;47.312;11.060;2023-05-20T07:47:52;4.35;;;3.95;;
10902;SDS011;5504;47.312;11.060;2023-05-20T07:50:18;4.00;;;3.53;;
10902;SDS011;5504;47.312;11.060;2023-05-20T07:52:43;4.10;;;3.70;;
10902;SDS011;5504;47.312;11.060;2023-05-20T07:55:09;3.63;;;3.22;;
10902;SDS011;5504;47.312;11.060;2023-05-20T07:57:35;4.05;;;3.10;;
10902;SDS011;5504;47.312;11.060;2023-05-20T08:00:00;3.45;;;3.15;;
10902;SDS011;5504;47.312;11.060;2023-05-20T08:02:26;3.40;;;3.10;;
10902;SDS011;5504;47.312;11.060;2023-05-20T08:04:52;3.97;;;3.58;;
10902;SDS011;5504;47.312;11.060;2023-05-20T08:07:18;3.38;;;3.08;;
10902;SDS011;5504;47.312;11.060;2023-05-20T08:09:44;3.70;;;3.40;;
10902;SDS011;5504;47.312;11.060;2023-05-20T08:12:10;3.38;;;3.08;;
10902;SDS011;5504;47.312;11.060;2023-05-20T08:14:35;3.05;;;2.85;;
10902;SDS011;5504;47.312;11.060;2023-05-20T08:17:01;2.60;;;2.40;;
10902;SDS011;5504;47.312;11.060;2023-05-20T08:19:27;2.60;;;2.40;;
10902;SDS011;5504;47.312;11.060;2023-05-20T08:21:53;2.95;;;2.67;;
10902;SDS011;5504;47.312;11.060;2023-05-20T08:24:18;2.83;;;2.63;;
10902;SDS011;5504;47.312;11.060;2023-05-20T08:26:44;3.20;;;3.00;;
10902;SDS011;5504;47.312;11.060;2023-05-20T08:29:10;2.95;;;2.75;;
10902;SDS011;5504;47.312;11.060;2023-05-20T08:31:35;3.13;;;2.75;;
10902;SDS011;5504;47.312;11.060;2023-05-20T08:34:01;3.15;;;2.83;;
10902;SDS011;5504;47.312;11.060;2023-05-20T08:36:27;3.22;;;2.85;;
10902;SDS011;5504;47.312;11.060;2023-05-20T08:38:52;2.88;;;2.67;;
10902;SDS011;5504;47.312;11.060;2023-05-20T08:41:19;2.70;;;2.50;;
10902;SDS011;5504;47.312;11.060;2023-05-20T08:43:46;3.42;;;3.13;;
10902;SDS011;5504;47.312;11.060;2023-05-20T08:46:14;3.17;;;2.88;;
10902;SDS011;5504;47.312;11.060;2023-05-20T08:48:41;3.00;;;2.70;;
10902;SDS011;5504;47.312;11.060;2023-05-20T08:51:08;3.00;;;2.20;;
10902;SDS011;5504;47.312;11.060;2023-05-20T08:53:35;2.70;;;2.50;;
10902;SDS011;5504;47.312;11.060;2023-05-20T08:56:01;2.45;;;2.25;;
10902;SDS011;5504;47.312;11.060;2023-05-20T08:58:27;2.90;;;2.65;;
10902;SDS011;5504;47.312;11.060;2023-05-20T09:00:59;2.53;;;2.33;;
10902;SDS011;5504;47.312;11.060;2023-05-20T09:03:26;2.60;;;2.40;;
10902;SDS011;5504;47.312;11.060;2023-05-20T09:05:52;2.75;;;2.47;;
10902;SDS011;5504;47.312;11.060;2023-05-20T09:08:18;2.30;;;2.10;;
10902;SDS011;5504;47.312;11.060;2023-05-20T09:10:50;2.47;;;2.28;;
10902;SDS011;5504;47.312;11.060;2023-05-20T09:13:17;3.03;;;2.30;;
10902;SDS011;5504;47.312;11.060;2023-05-20T09:15:43;2.45;;;2.25;;
10902;SDS011;5504;47.312;11.060;2023-05-20T09:18:09;2.50;;;2.30;;
10902;SDS011;5504;47.312;11.060;2023-05-20T09:20:36;2.42;;;2.22;;
10902;SDS011;5504;47.312;11.060;2023-05-20T09:23:03;2.28;;;2.05;;
10902;SDS011;5504;47.312;11.060;2023-05-20T09:25:32;2.30;;;2.10;;
10902;SDS011;5504;47.312;11.060;2023-05-20T09:27:59;2.58;;;2.38;;
10902;SDS011;5504;47.312;11.060;2023-05-20T09:30:24;2.42;;;2.10;;
10902;SDS011;5504;47.312;11.060;2023-05-20T09:32:57;2.53;;;2.33;;
10902;SDS011;5504;47.312;11.060;2023-05-20T09:35:24;3.13;;;1.90;;
10902;SDS011;5504;47.312;11.060;2023-05-20T09:37:52;2.40;;;2.20;;
10902;SDS011;5504;47.312;11.060;2023-05-20T09:40:20;2.42;;;2.22;;
10902;SDS011;5504;47.312;11.060;2023-05-20T09:43:01;2.33;;;2.20;;
10902;SDS011;5504;47.312;11.060;2023-05-20T09:45:29;2.47;;;2.08;;
10902;SDS011;5504;47.312;11.060;2023-05-20T09:47:55;3.00;;;2.15;;
10902;SDS011;5504;47.312;11.060;2023-05-20T09:50:21;2.28;;;2.13;;
10902;SDS011;5504;47.312;11.060;2023-05-20T09:52:49;2.00;;;1.80;;
10902;SDS011;5504;47.312;11.060;2023-05-20T09:55:16;2.45;;;2.25;;
10902;SDS011;5504;47.312;11.060;2023-05-20T09:57:43;2.17;;;2.08;;
10902;SDS011;5504;47.312;11.060;2023-05-20T10:00:10;2.30;;;2.10;;
10902;SDS011;5504;47.312;11.060;2023-05-20T10:02:40;3.15;;;2.00;;
10902;SDS011;5504;47.312;11.060;2023-05-20T10:05:17;2.42;;;2.22;;
10902;SDS011;5504;47.312;11.060;2023-05-20T10:10:38;2.38;;;2.17;;
10902;SDS011;5504;47.312;11.060;2023-05-20T10:18:55;2.70;;;2.47;;
10902;SDS011;5504;47.312;11.060;2023-05-20T10:21:26;2.95;;;2.15;;
10902;SDS011;5504;47.312;11.060;2023-05-20T10:23:52;2.78;;;2.55;;
10902;SDS011;5504;47.312;11.060;2023-05-20T10:26:17;2.67;;;2.40;;
10902;SDS011;5504;47.312;11.060;2023-05-20T10:28:44;3.55;;;2.47;;
10902;SDS011;5504;47.312;11.060;2023-05-20T10:31:17;3.03;;;2.72;;
10902;SDS011;5504;47.312;11.060;2023-05-20T10:33:45;3.65;;;2.65;;
10902;SDS011;5504;47.312;11.060;2023-05-20T10:39:13;2.40;;;2.20;;
10902;SDS011;5504;47.312;11.060;2023-05-20T10:41:42;2.78;;;2.53;;
10902;SDS011;5504;47.312;11.060;2023-05-20T10:44:08;3.22;;;2.92;;
10902;SDS011;5504;47.312;11.060;2023-05-20T10:46:34;2.65;;;2.45;;
10902;SDS011;5504;47.312;11.060;2023-05-20T10:49:00;3.72;;;3.10;;
10902;SDS011;5504;47.312;11.060;2023-05-20T10:51:27;3.20;;;2.78;;
10902;SDS011;5504;47.312;11.060;2023-05-20T10:53:55;2.65;;;2.40;;
10902;SDS011;5504;47.312;11.060;2023-05-20T10:56:25;3.10;;;2.85;;
10902;SDS011;5504;47.312;11.060;2023-05-20T10:58:51;3.00;;;2.80;;
10902;SDS011;5504;47.312;11.060;2023-05-20T11:01:23;2.88;;;2.63;;
10902;SDS011;5504;47.312;11.060;2023-05-20T11:03:50;3.13;;;2.83;;
10902;SDS011;5504;47.312;11.060;2023-05-20T11:06:24;3.53;;;2.50;;
10902;SDS011;5504;47.312;11.060;2023-05-20T11:08:52;3.03;;;2.20;;
10902;SDS011;5504;47.312;11.060;2023-05-20T11:11:19;2.60;;;2.40;;
10902;SDS011;5504;47.312;11.060;2023-05-20T11:13:50;2.70;;;2.40;;
10902;SDS011;5504;47.312;11.060;2023-05-20T11:16:17;3.28;;;2.65;;
10902;SDS011;5504;47.312;11.060;2023-05-20T11:18:46;3.47;;;2.25;;
10902;SDS011;5504;47.312;11.060;2023-05-20T11:21:13;3.08;;;2.28;;
10902;SDS011;5504;47.312;11.060;2023-05-20T11:23:38;3.55;;;2.45;;
10902;SDS011;5504;47.312;11.060;2023-05-20T11:26:04;2.30;;;2.10;;
10902;SDS011;5504;47.312;11.060;2023-05-20T11:28:30;2.55;;;2.35;;
10902;SDS011;5504;47.312;11.060;2023-05-20T11:30:58;2.97;;;2.30;;
10902;SDS011;5504;47.312;11.060;2023-05-20T11:33:24;2.72;;;2.40;;
10902;SDS011;5504;47.312;11.060;2023-05-20T11:35:51;2.53;;;2.33;;
10902;SDS011;5504;47.312;11.060;2023-05-20T11:38:18;2.40;;;2.20;;
10902;SDS011;5504;47.312;11.060;2023-05-20T11:40:46;2.97;;;2.50;;
10902;SDS011;5504;47.312;11.060;2023-05-20T11:43:16;2.67;;;2.17;;
10902;SDS011;5504;47.312;11.060;2023-05-20T11:45:43;3.53;;;2.33;;
10902;SDS011;5504;47.312;11.060;2023-05-20T11:48:10;2.85;;;2.28;;
10902;SDS011;5504;47.312;11.060;2023-05-20T11:50:39;2.38;;;1.92;;
10902;SDS011;5504;47.312;11.060;2023-05-20T11:53:07;2.60;;;2.40;;
10902;SDS011;5504;47.312;11.060;2023-05-20T11:55:47;2.50;;;2.30;;
10902;SDS011;5504;47.312;11.060;2023-05-20T11:58:18;4.18;;;2.30;;
10902;SDS011;5504;47.312;11.060;2023-05-20T12:00:45;2.55;;;2.35;;
10902;SDS011;5504;47.312;11.060;2023-05-20T12:03:11;2.60;;;2.40;;
10902;SDS011;5504;47.312;11.060;2023-05-20T12:05:37;3.08;;;2.65;;
10902;SDS011;5504;47.312;11.060;2023-05-20T12:08:03;2.50;;;2.30;;
10902;SDS011;5504;47.312;11.060;2023-05-20T12:10:29;4.75;;;2.50;;
10902;SDS011;5504;47.312;11.060;2023-05-20T12:12:55;2.95;;;2.30;;
10902;SDS011;5504;47.312;11.060;2023-05-20T12:15:21;2.63;;;2.42;;
10902;SDS011;5504;47.312;11.060;2023-05-20T12:17:48;2.88;;;2.58;;
10902;SDS011;5504;47.312;11.060;2023-05-20T12:20:16;2.45;;;2.25;;
10902;SDS011;5504;47.312;11.060;2023-05-20T12:22:43;2.88;;;2.47;;
10902;SDS011;5504;47.312;11.060;2023-05-20T12:25:10;3.33;;;2.20;;
10902;SDS011;5504;47.312;11.060;2023-05-20T12:27:36;3.70;;;2.60;;
10902;SDS011;5504;47.312;11.060;2023-05-20T12:30:02;3.22;;;2.60;;
10902;SDS011;5504;47.312;11.060;2023-05-20T12:32:29;2.95;;;2.30;;
10902;SDS011;5504;47.312;11.060;2023-05-20T12:34:55;2.50;;;2.30;;
10902;SDS011;5504;47.312;11.060;2023-05-20T12:37:20;2.60;;;2.40;;
10902;SDS011;5504;47.312;11.060;2023-05-20T12:39:46;2.78;;;2.58;;
10902;SDS011;5504;47.312;11.060;2023-05-20T12:42:12;2.63;;;2.40;;
10902;SDS011;5504;47.312;11.060;2023-05-20T12:44:37;3.03;;;2.50;;
10902;SDS011;5504;47.312;11.060;2023-05-20T12:47:03;2.92;;;2.40;;
10902;SDS011;5504;47.312;11.060;2023-05-20T12:49:29;3.08;;;2.72;;
10902;SDS011;5504;47.312;11.060;2023-05-20T12:51:55;2.70;;;2.50;;
10902;SDS011;5504;47.312;11.060;2023-05-20T12:54:20;3.22;;;2.60;;
10902;SDS011;5504;47.312;11.060;2023-05-20T12:56:46;2.92;;;2.70;;
10902;SDS011;5504;47.312;11.060;2023-05-20T12:59:12;3.13;;;2.80;;
10902;SDS011;5504;47.312;11.060;2023-05-20T13:01:39;4.28;;;2.65;;
10902;SDS011;5504;47.312;11.060;2023-05-20T13:04:04;3.13;;;2.83;;
10902;SDS011;5504;47.312;11.060;2023-05-20T13:06:30;3.20;;;2.75;;
10902;SDS011;5504;47.312;11.060;2023-05-20T13:08:56;3.22;;;2.65;;
10902;SDS011;5504;47.312;11.060;2023-05-20T13:11:22;4.18;;;2.67;;
10902;SDS011;5504;47.312;11.060;2023-05-20T13:13:48;4.05;;;2.60;;
10902;SDS011;5504;47.312;11.060;2023-05-20T13:16:14;3.30;;;3.00;;
10902;SDS011;5504;47.312;11.060;2023-05-20T13:18:41;3.17;;;2.88;;
10902;SDS011;5504;47.312;11.060;2023-05-20T13:21:08;3.28;;;2.97;;
10902;SDS011;5504;47.312;11.060;2023-05-20T13:23:33;3.78;;;2.88;;
10902;SDS011;5504;47.312;11.060;2023-05-20T13:26:00;3.25;;;2.95;;
10902;SDS011;5504;47.312;11.060;2023-05-20T13:28:26;3.10;;;2.85;;
10902;SDS011;5504;47.312;11.060;2023-05-20T13:30:52;2.97;;;2.78;;
10902;SDS011;5504;47.312;11.060;2023-05-20T13:33:18;4.00;;;3.13;;
10902;SDS011;5504;47.312;11.060;2023-05-20T13:35:44;3.20;;;2.90;;
10902;SDS011;5504;47.312;11.060;2023-05-20T13:38:10;3.28;;;2.97;;
10902;SDS011;5504;47.312;11.060;2023-05-20T13:40:36;3.25;;;2.85;;
10902;SDS011;5504;47.312;11.060;2023-05-20T13:43:04;3.50;;;2.80;;
10902;SDS011;5504;47.312;11.060;2023-05-20T13:45:30;4.18;;;3.35;;
10902;SDS011;5504;47.312;11.060;2023-05-20T13:47:56;5.05;;;3.25;;
10902;SDS011;5504;47.312;11.060;2023-05-20T13:50:21;3.63;;;3.33;;
10902;SDS011;5504;47.312;11.060;2023-05-20T13:52:47;3.40;;;3.10;;
10902;SDS011;5504;47.312;11.060;2023-05-20T13:55:13;3.33;;;3.03;;
10902;SDS011;5504;47.312;11.060;2023-05-20T13:57:40;3.33;;;2.92;;
10902;SDS011;5504;47.312;11.060;2023-05-20T14:00:06;3.55;;;3.25;;
10902;SDS011;5504;47.312;11.060;2023-05-20T14:02:33;3.92;;;3.40;;
10902;SDS011;5504;47.312;11.060;2023-05-20T14:04:59;3.35;;;3.05;;
10902;SDS011;5504;47.312;11.060;2023-05-20T14:07:24;3.63;;;3.33;;
10902;SDS011;5504;47.312;11.060;2023-05-20T14:09:50;3.30;;;3.00;;
10902;SDS011;5504;47.312;11.060;2023-05-20T14:12:16;4.88;;;3.40;;
10902;SDS011;5504;47.312;11.060;2023-05-20T14:14:41;4.13;;;3.50;;
10902;SDS011;5504;47.312;11.060;2023-05-20T14:17:07;3.78;;;3.45;;
10902;SDS011;5504;47.312;11.060;2023-05-20T14:19:33;4.88;;;3.72;;
10902;SDS011;5504;47.312;11.060;2023-05-20T14:21:58;4.13;;;3.58;;
10902;SDS011;5504;47.312;11.060;2023-05-20T14:24:25;4.55;;;3.70;;
10902;SDS011;5504;47.312;11.060;2023-05-20T14:26:51;3.97;;;3.50;;
10902;SDS011;5504;47.312;11.060;2023-05-20T14:29:17;3.95;;;3.58;;
10902;SDS011;5504;47.312;11.060;2023-05-20T14:31:43;3.60;;;3.30;;
10902;SDS011;5504;47.312;11.060;2023-05-20T14:34:09;4.18;;;3.50;;
10902;SDS011;5504;47.312;11.060;2023-05-20T14:36:34;4.43;;;3.53;;
10902;SDS011;5504;47.312;11.060;2023-05-20T14:39:00;4.68;;;3.38;;
10902;SDS011;5504;47.312;11.060;2023-05-20T14:41:26;4.15;;;3.65;;
10902;SDS011;5504;47.312;11.060;2023-05-20T14:43:52;4.50;;;3.70;;
10902;SDS011;5504;47.312;11.060;2023-05-20T14:46:18;4.22;;;3.50;;
10902;SDS011;5504;47.312;11.060;2023-05-20T14:48:44;4.60;;;3.42;;
10902;SDS011;5504;47.312;11.060;2023-05-20T14:51:09;4.03;;;3.58;;
10902;SDS011;5504;47.312;11.060;2023-05-20T14:53:35;3.90;;;3.50;;
10902;SDS011;5504;47.312;11.060;2023-05-20T14:56:01;4.45;;;3.55;;